YUPH weather

Upper Horton Wyl Airport
New South Wales, Australia

Public forecast

Using degrees Celsius for public forecast. Weather courtesy of forecast.io.

Closest aviation weather report (METAR) to Upper Horton Wyl Airport

Closest report is Narrabri Airport, 32.6 nm (60.4 km) WSW. Retrieved 2019/10/18 03:00 UTC (11 minutes ago):

YNBR 180300Z AUTO 04005KT 330V120 9999 // NCD 25/M07 Q1017

Closest aviation forecast (TAF) to Upper Horton Wyl Airport

Closest forecast is Tamworth Airport, 63.1 nm (116.8 km) SSE. Retrieved 2019-10-18 00:36 UTC (3 hours ago):

TAF YSTW 172253Z 1800/1818 28008KT CAVOK FM181000 15008KT CAVOK